Time;durP1;ratioP1;P1;durP2;ratioP2;P2;SDS_P1;SDS_P2;PMS_P1;PMS_P2;Temp;Humidity;BMP_temperature;BMP_pressure;BME280_temperature;BME280_humidity;BME280_pressure;Samples;Min_cycle;Max_cycle;Signal;HPM_P1;HPM_P2
2021/04/03 00:00:23;;;;;;;10.10;4.70;;;12.10;1.00;;;;;;5062840;28;20443;-79
2021/04/03 00:02:50;;;;;;;3.60;3.07;;;12.20;1.00;;;;;;5057380;28;20521;-80
2021/04/03 00:05:17;;;;;;;5.50;3.40;;;12.20;1.00;;;;;;5069696;28;20484;-80
2021/04/03 00:07:44;;;;;;;4.60;3.50;;;12.00;1.00;;;;;;5065512;28;20442;-80
2021/04/03 00:10:17;;;;;;;4.63;3.67;;;12.00;1.00;;;;;;5060068;28;20500;-80
2021/04/03 00:12:45;;;;;;;3.93;3.53;;;12.00;1.00;;;;;;5066884;28;20451;-81
2021/04/03 00:15:14;;;;;;;5.60;4.73;;;12.00;1.00;;;;;;5067453;28;20774;-80
2021/04/03 00:17:42;;;;;;;4.53;4.03;;;11.90;1.00;;;;;;5066580;28;20450;-80
2021/04/03 00:20:12;;;;;;;3.90;3.47;;;12.10;1.00;;;;;;5065701;28;20451;-80
2021/04/03 00:22:39;;;;;;;6.57;3.93;;;12.00;1.00;;;;;;5068624;28;20466;-81
2021/04/03 00:25:08;;;;;;;5.33;3.80;;;12.00;1.00;;;;;;5064441;28;20498;-81
2021/04/03 00:27:35;;;;;;;7.70;4.63;;;12.00;1.00;;;;;;5064412;28;20457;-81
2021/04/03 00:30:14;;;;;;;5.20;4.10;;;11.90;1.00;;;;;;5062428;28;20840;-80
2021/04/03 00:32:43;;;;;;;6.77;3.90;;;11.80;1.00;;;;;;5050675;28;20475;-80
2021/04/03 00:35:12;;;;;;;5.50;3.33;;;11.80;1.00;;;;;;5056314;28;20973;-80
2021/04/03 00:37:39;;;;;;;8.33;4.67;;;11.80;1.00;;;;;;5059119;28;20463;-80
2021/04/03 00:40:10;;;;;;;9.60;4.70;;;11.80;1.00;;;;;;5059818;28;21051;-80
2021/04/03 00:42:37;;;;;;;6.07;3.73;;;11.80;1.00;;;;;;5055161;28;20540;-80
2021/04/03 00:45:06;;;;;;;5.87;4.27;;;11.70;1.00;;;;;;5062845;28;20831;-80
2021/04/03 00:47:33;;;;;;;6.73;3.70;;;11.60;1.00;;;;;;5068013;28;20451;-80
2021/04/03 00:50:01;;;;;;;7.00;3.97;;;11.70;1.00;;;;;;5056962;28;20981;-80
2021/04/03 00:52:28;;;;;;;3.33;3.10;;;11.70;1.00;;;;;;5061112;28;20471;-81
2021/04/03 00:54:56;;;;;;;7.73;3.40;;;11.80;1.00;;;;;;5069271;28;20479;-80
2021/04/03 00:57:23;;;;;;;4.23;3.80;;;11.80;1.00;;;;;;5068363;28;20463;-81
2021/04/03 00:59:50;;;;;;;4.17;3.80;;;11.90;1.00;;;;;;5063363;28;20986;-81
2021/04/03 01:02:18;;;;;;;5.70;3.57;;;11.90;1.00;;;;;;5057367;28;20471;-80
2021/04/03 01:04:45;;;;;;;4.03;3.43;;;11.80;1.00;;;;;;5052910;28;20613;-80
2021/04/03 01:07:13;;;;;;;6.40;4.47;;;11.90;1.00;;;;;;5066522;28;20822;-81
2021/04/03 01:09:41;;;;;;;6.17;3.90;;;11.80;1.00;;;;;;5058468;28;20450;-81
2021/04/03 01:12:19;;;;;;;4.20;3.40;;;11.80;1.00;;;;;;5067228;28;20470;-80
2021/04/03 01:14:54;;;;;;;6.23;3.30;;;11.80;1.00;;;;;;5068937;28;20542;-80
2021/04/03 01:17:29;;;;;;;3.70;2.80;;;11.80;1.00;;;;;;5063734;28;20443;-81
2021/04/03 01:20:17;;;;;;;6.20;4.27;;;11.70;1.00;;;;;;5052987;28;20452;-80
2021/04/03 01:23:09;;;;;;;5.07;3.43;;;11.60;1.00;;;;;;5069611;28;20549;-81
2021/04/03 01:25:45;;;;;;;3.50;2.93;;;11.60;1.00;;;;;;5064009;28;20472;-80
2021/04/03 01:28:43;;;;;;;6.10;3.43;;;11.70;1.00;;;;;;5055667;28;21262;-80
2021/04/03 01:31:13;;;;;;;5.13;3.60;;;11.60;1.00;;;;;;5059318;28;20558;-79
2021/04/03 01:33:45;;;;;;;4.70;3.20;;;11.60;1.00;;;;;;5060366;28;20513;-79
2021/04/03 01:36:17;;;;;;;3.30;3.00;;;11.60;1.00;;;;;;5058654;28;20469;-80
2021/04/03 01:38:48;;;;;;;10.93;3.70;;;11.60;1.00;;;;;;5062647;28;20453;-80
2021/04/03 01:41:17;;;;;;;4.53;3.30;;;11.70;1.00;;;;;;5054789;28;20482;-80
2021/04/03 01:43:49;;;;;;;4.07;3.43;;;11.70;1.00;;;;;;5061262;28;20507;-80
2021/04/03 01:46:21;;;;;;;5.40;3.53;;;11.70;1.00;;;;;;5063252;28;20486;-80
2021/04/03 01:48:50;;;;;;;7.87;4.10;;;11.70;1.00;;;;;;5064367;28;20527;-80
2021/04/03 01:51:19;;;;;;;4.67;3.23;;;11.60;1.00;;;;;;5062249;28;20458;-80
2021/04/03 01:53:47;;;;;;;3.93;3.60;;;11.60;1.00;;;;;;5059662;28;21124;-80
2021/04/03 01:56:19;;;;;;;3.53;3.23;;;11.70;1.00;;;;;;5066461;28;20455;-80
2021/04/03 01:58:47;;;;;;;5.50;4.03;;;11.70;1.00;;;;;;5066170;28;20450;-80
2021/04/03 02:01:17;;;;;;;4.63;4.23;;;11.60;1.00;;;;;;5056819;28;20540;-80
2021/04/03 02:03:45;;;;;;;5.83;3.60;;;11.60;1.00;;;;;;5057903;28;20451;-80
2021/04/03 02:06:12;;;;;;;8.20;3.63;;;11.50;1.00;;;;;;5059034;28;20535;-80
2021/04/03 02:08:41;;;;;;;4.77;4.20;;;11.60;1.00;;;;;;5058450;28;20447;-79
2021/04/03 02:11:09;;;;;;;5.80;4.00;;;11.60;1.00;;;;;;5064310;28;20470;-79
2021/04/03 02:13:37;;;;;;;4.63;3.87;;;11.50;1.00;;;;;;5060101;28;20453;-80
2021/04/03 02:16:06;;;;;;;4.50;3.87;;;11.60;1.00;;;;;;5062763;28;20448;-80
2021/04/03 02:18:35;;;;;;;9.60;4.47;;;11.50;1.00;;;;;;5061328;28;20460;-80
2021/04/03 02:21:03;;;;;;;3.77;3.30;;;11.50;1.00;;;;;;5065005;28;20468;-80
2021/04/03 02:23:32;;;;;;;6.17;3.83;;;11.40;1.00;;;;;;5065114;28;20499;-80
2021/04/03 02:26:00;;;;;;;4.23;3.60;;;11.50;1.00;;;;;;5062287;28;20826;-80
2021/04/03 02:28:27;;;;;;;6.13;4.13;;;11.60;1.00;;;;;;5065118;28;20452;-80
2021/04/03 02:30:54;;;;;;;6.93;3.80;;;11.40;1.00;;;;;;5050767;28;20467;-80
2021/04/03 02:33:22;;;;;;;6.47;3.67;;;11.40;1.00;;;;;;5065605;28;20459;-80
2021/04/03 02:35:50;;;;;;;3.23;2.90;;;11.30;1.00;;;;;;5051192;28;20460;-80
2021/04/03 02:38:18;;;;;;;5.10;4.10;;;11.30;1.00;;;;;;5061892;28;20475;-81
2021/04/03 02:40:45;;;;;;;4.60;3.77;;;11.40;1.00;;;;;;5057034;28;20516;-81
2021/04/03 02:43:19;;;;;;;6.00;4.13;;;11.30;1.00;;;;;;5062036;28;20452;-81
2021/04/03 02:45:52;;;;;;;8.47;3.80;;;11.30;1.00;;;;;;5067029;28;20474;-81
2021/04/03 02:48:20;;;;;;;3.17;2.87;;;11.20;1.00;;;;;;5065973;28;20443;-81
2021/04/03 02:50:52;;;;;;;6.13;3.03;;;11.30;1.00;;;;;;5070529;28;20477;-81
2021/04/03 02:53:27;;;;;;;5.93;3.77;;;11.30;1.00;;;;;;5066537;28;20465;-80
2021/04/03 02:55:57;;;;;;;4.27;3.03;;;11.30;1.00;;;;;;5061229;28;20920;-80
2021/04/03 02:58:29;;;;;;;4.30;2.70;;;11.20;1.00;;;;;;5053243;28;20509;-79
2021/04/03 03:00:58;;;;;;;3.40;3.10;;;11.20;1.00;;;;;;5068175;28;20475;-80
2021/04/03 03:03:26;;;;;;;4.00;3.10;;;11.20;1.00;;;;;;5061938;28;20454;-81
2021/04/03 03:05:58;;;;;;;4.17;3.20;;;11.10;1.00;;;;;;5064702;28;20471;-81
2021/04/03 03:08:27;;;;;;;3.70;3.33;;;11.10;1.00;;;;;;5055321;28;20444;-80
2021/04/03 03:10:55;;;;;;;3.70;2.67;;;11.10;1.00;;;;;;5065856;28;20490;-81
2021/04/03 03:13:23;;;;;;;3.77;3.40;;;11.10;1.00;;;;;;5067903;28;20449;-80
2021/04/03 03:15:50;;;;;;;4.93;3.67;;;11.00;1.00;;;;;;5064651;28;20437;-81
2021/04/03 03:18:18;;;;;;;3.70;2.77;;;11.00;1.00;;;;;;5054073;28;20501;-81
2021/04/03 03:20:46;;;;;;;4.30;3.37;;;11.10;1.00;;;;;;5065756;28;21038;-81
2021/04/03 03:23:15;;;;;;;3.90;2.70;;;11.10;1.00;;;;;;5067854;28;20459;-81
2021/04/03 03:25:43;;;;;;;5.90;3.00;;;11.00;1.00;;;;;;5060501;28;20470;-81
2021/04/03 03:28:10;;;;;;;4.93;3.50;;;11.00;1.00;;;;;;5067251;28;20816;-80
2021/04/03 03:30:38;;;;;;;3.37;2.63;;;10.90;1.00;;;;;;5067179;28;20886;-81
2021/04/03 03:33:05;;;;;;;4.10;3.00;;;10.90;1.00;;;;;;5060945;28;20949;-81
2021/04/03 03:35:33;;;;;;;2.73;2.53;;;10.90;1.00;;;;;;5057707;28;20976;-81
2021/04/03 03:38:00;;;;;;;4.57;3.17;;;11.00;1.00;;;;;;5065790;28;20460;-80
2021/04/03 03:40:29;;;;;;;3.73;3.13;;;10.90;1.00;;;;;;5053300;28;20469;-81
2021/04/03 03:42:57;;;;;;;3.57;3.27;;;10.90;1.00;;;;;;5057964;28;20454;-81
2021/04/03 03:45:25;;;;;;;5.63;3.50;;;10.90;1.00;;;;;;5051540;28;20482;-81
2021/04/03 03:47:54;;;;;;;3.17;2.60;;;10.90;1.00;;;;;;5066295;28;21185;-81
2021/04/03 03:50:22;;;;;;;3.60;2.97;;;11.00;1.00;;;;;;5059885;28;20496;-81
2021/04/03 03:52:49;;;;;;;3.30;2.57;;;11.00;1.00;;;;;;5066175;28;20443;-81
2021/04/03 03:55:16;;;;;;;4.20;3.20;;;10.90;1.00;;;;;;5055276;28;20509;-80
2021/04/03 03:57:45;;;;;;;8.17;2.90;;;11.00;1.00;;;;;;5057495;28;20531;-82
2021/04/03 04:00:13;;;;;;;11.17;3.40;;;10.90;1.00;;;;;;5058550;28;20463;-81
2021/04/03 04:02:40;;;;;;;4.13;3.07;;;10.90;1.00;;;;;;5064294;28;20516;-81
2021/04/03 04:05:08;;;;;;;4.97;3.27;;;10.70;1.00;;;;;;5054537;28;20480;-82
2021/04/03 04:07:35;;;;;;;3.30;2.47;;;10.80;1.00;;;;;;5059249;28;20540;-81
2021/04/03 04:10:07;;;;;;;5.57;3.27;;;10.80;1.00;;;;;;5062037;28;20968;-81
2021/04/03 04:12:34;;;;;;;5.80;3.50;;;10.80;1.00;;;;;;5057251;28;20470;-81
2021/04/03 04:15:03;;;;;;;4.57;3.80;;;10.70;1.00;;;;;;5057853;28;20801;-82
2021/04/03 04:17:30;;;;;;;5.53;3.40;;;10.70;1.00;;;;;;5066978;28;20523;-82
2021/04/03 04:19:57;;;;;;;3.80;3.27;;;10.70;1.00;;;;;;5061050;28;20462;-80
2021/04/03 04:22:24;;;;;;;5.90;3.43;;;10.80;1.00;;;;;;5065238;28;20465;-81
2021/04/03 04:24:51;;;;;;;3.03;2.70;;;10.80;1.00;;;;;;5064505;28;20770;-80
2021/04/03 04:27:18;;;;;;;3.00;2.80;;;10.80;1.00;;;;;;5071154;28;20475;-82
2021/04/03 04:29:45;;;;;;;3.37;2.83;;;10.80;1.00;;;;;;5066717;28;20450;-81
2021/04/03 04:32:14;;;;;;;6.10;2.87;;;10.80;1.00;;;;;;5076176;28;20962;-81
2021/04/03 04:34:41;;;;;;;3.73;3.20;;;10.80;1.00;;;;;;5064638;28;20485;-81
2021/04/03 04:37:08;;;;;;;3.90;2.43;;;10.70;1.00;;;;;;5063980;28;20464;-81
2021/04/03 04:39:35;;;;;;;5.17;3.40;;;10.70;1.00;;;;;;5069450;28;20837;-82
2021/04/03 04:42:04;;;;;;;4.97;2.60;;;10.60;1.00;;;;;;5069476;28;20470;-81
2021/04/03 04:44:31;;;;;;;4.40;2.73;;;10.60;1.00;;;;;;5068940;28;20449;-80
2021/04/03 04:46:58;;;;;;;4.37;2.73;;;10.60;1.00;;;;;;5075820;28;20474;-81
2021/04/03 04:49:26;;;;;;;3.30;2.80;;;10.60;1.00;;;;;;5070456;28;20453;-81
2021/04/03 04:51:53;;;;;;;4.93;2.63;;;10.60;1.00;;;;;;5067088;28;20480;-81
2021/04/03 04:54:20;;;;;;;3.10;2.67;;;10.60;1.00;;;;;;5057791;28;20517;-82
2021/04/03 04:56:48;;;;;;;4.73;2.87;;;10.50;1.00;;;;;;5054945;28;20501;-80
2021/04/03 04:59:15;;;;;;;3.73;2.57;;;10.40;1.00;;;;;;5061652;28;20444;-80
2021/04/03 05:01:42;;;;;;;3.97;2.77;;;10.50;1.00;;;;;;5068382;28;20480;-81
2021/04/03 05:04:09;;;;;;;3.43;3.00;;;10.40;1.00;;;;;;5061820;28;20451;-80
2021/04/03 05:06:37;;;;;;;4.53;3.03;;;10.50;1.00;;;;;;5057756;28;20498;-80
2021/04/03 05:09:05;;;;;;;3.93;3.10;;;10.50;1.00;;;;;;5063683;28;20460;-80
2021/04/03 05:11:32;;;;;;;3.43;3.20;;;10.30;1.00;;;;;;5064815;28;21084;-78
2021/04/03 05:13:59;;;;;;;3.93;2.70;;;10.20;1.00;;;;;;5069130;28;20807;-80
2021/04/03 05:16:26;;;;;;;7.73;3.03;;;10.30;1.00;;;;;;5057643;28;20936;-79
2021/04/03 05:18:53;;;;;;;5.80;3.27;;;10.40;1.00;;;;;;5058219;28;20466;-80
2021/04/03 05:21:21;;;;;;;3.77;2.90;;;10.30;1.00;;;;;;5060596;28;20478;-78
2021/04/03 05:23:49;;;;;;;5.63;2.90;;;10.40;1.00;;;;;;5067626;28;20894;-80
2021/04/03 05:26:16;;;;;;;4.77;2.30;;;10.40;1.00;;;;;;5065354;28;20480;-80
2021/04/03 05:28:44;;;;;;;2.80;2.43;;;10.40;1.00;;;;;;5055762;28;20533;-79
2021/04/03 05:31:12;;;;;;;4.60;3.90;;;10.50;1.00;;;;;;5059982;28;20447;-79
2021/04/03 05:33:39;;;;;;;5.77;3.20;;;10.30;1.00;;;;;;5050217;28;20214;-80
2021/04/03 05:36:06;;;;;;;3.60;2.87;;;10.30;1.00;;;;;;5058261;28;20469;-79
2021/04/03 05:38:33;;;;;;;4.47;3.47;;;10.30;1.00;;;;;;5064993;28;20454;-80
2021/04/03 05:41:01;;;;;;;7.17;2.80;;;10.20;1.00;;;;;;5058309;28;20472;-79
2021/04/03 05:43:28;;;;;;;7.90;2.80;;;10.20;1.00;;;;;;5057672;28;20458;-80
2021/04/03 05:45:58;;;;;;;4.43;3.00;;;10.00;1.00;;;;;;5068492;28;20477;-79
2021/04/03 05:48:25;;;;;;;3.70;2.50;;;10.20;1.00;;;;;;5064280;28;20456;-79
2021/04/03 05:50:54;;;;;;;2.40;2.30;;;10.30;1.00;;;;;;5068068;28;20501;-79
2021/04/03 05:53:23;;;;;;;3.50;2.90;;;10.30;1.00;;;;;;5053934;28;20454;-79
2021/04/03 05:55:52;;;;;;;4.43;2.80;;;10.30;1.00;;;;;;5060904;28;20450;-79
2021/04/03 05:58:21;;;;;;;2.90;2.43;;;10.20;1.00;;;;;;5067661;28;20436;-79
2021/04/03 06:00:51;;;;;;;6.17;3.33;;;10.10;1.00;;;;;;5059504;28;20479;-79
2021/04/03 06:03:18;;;;;;;2.83;1.93;;;10.10;1.00;;;;;;5059056;28;20445;-80
2021/04/03 06:05:48;;;;;;;4.50;3.30;;;10.10;1.00;;;;;;5053721;28;20608;-79
2021/04/03 06:08:15;;;;;;;4.83;4.40;;;10.10;1.00;;;;;;5061895;28;20193;-78
2021/04/03 06:10:42;;;;;;;4.70;2.63;;;10.20;1.00;;;;;;5049721;28;20469;-79
2021/04/03 06:13:17;;;;;;;3.50;2.53;;;10.40;1.00;;;;;;5067316;28;20461;-79
2021/04/03 06:15:45;;;;;;;15.03;3.40;;;10.30;1.00;;;;;;5068990;28;20782;-80
2021/04/03 06:18:16;;;;;;;4.27;2.93;;;10.30;1.00;;;;;;5072341;28;20846;-80
2021/04/03 06:20:43;;;;;;;8.40;3.10;;;10.40;1.00;;;;;;5067987;28;20480;-78
2021/04/03 06:23:11;;;;;;;2.07;1.90;;;10.50;1.00;;;;;;5060424;28;21009;-79
2021/04/03 06:25:53;;;;;;;4.15;2.30;;;10.50;1.00;;;;;;5056742;28;20440;-79
2021/04/03 06:28:27;;;;;;;4.37;2.57;;;10.60;1.00;;;;;;5067052;28;20285;-78
2021/04/03 06:30:59;;;;;;;3.37;2.27;;;10.70;1.00;;;;;;5064421;28;20490;-80
2021/04/03 06:33:26;;;;;;;2.40;2.13;;;10.80;1.00;;;;;;5060600;28;20496;-79
2021/04/03 06:36:08;;;;;;;3.43;1.83;;;10.70;1.00;;;;;;5064381;28;20472;-78
2021/04/03 06:38:36;;;;;;;2.20;1.73;;;10.80;1.00;;;;;;5051833;28;20869;-79
2021/04/03 06:41:20;;;;;;;3.10;2.20;;;11.00;1.00;;;;;;5065194;28;20477;-79
2021/04/03 06:44:05;;;;;;;4.53;2.67;;;11.10;1.00;;;;;;5068114;28;20534;-79
2021/04/03 06:46:34;;;;;;;5.10;2.97;;;11.10;1.00;;;;;;5059854;28;20470;-79
2021/04/03 06:49:02;;;;;;;3.83;2.00;;;11.20;1.00;;;;;;5067582;28;20581;-78
2021/04/03 06:51:30;;;;;;;4.33;2.10;;;11.20;1.00;;;;;;5053040;28;21179;-78
2021/04/03 06:53:59;;;;;;;3.47;2.37;;;11.30;1.00;;;;;;5059777;28;20469;-80
2021/04/03 06:56:30;;;;;;;2.63;2.10;;;11.40;1.00;;;;;;5064555;28;20470;-80
2021/04/03 06:59:00;;;;;;;2.83;2.03;;;11.40;1.00;;;;;;5053852;28;20862;-79
2021/04/03 07:01:31;;;;;;;2.50;2.10;;;11.50;1.00;;;;;;5062085;28;20566;-79
2021/04/03 07:04:03;;;;;;;4.13;2.30;;;11.60;1.00;;;;;;5065887;28;20457;-79
2021/04/03 07:06:32;;;;;;;5.10;2.03;;;11.60;1.00;;;;;;5060261;28;20987;-78
2021/04/03 07:09:01;;;;;;;3.90;2.80;;;11.60;1.00;;;;;;5052226;28;20524;-79
2021/04/03 07:11:28;;;;;;;3.50;3.20;;;11.70;1.00;;;;;;5051414;28;20435;-78
2021/04/03 07:13:59;;;;;;;4.70;2.57;;;11.80;1.00;;;;;;5046819;28;20849;-79
2021/04/03 07:16:28;;;;;;;3.40;2.27;;;11.80;1.00;;;;;;5053153;28;20474;-79
2021/04/03 07:18:56;;;;;;;2.70;2.47;;;11.90;1.00;;;;;;5045350;28;20448;-79
2021/04/03 07:21:24;;;;;;;2.83;2.03;;;11.90;1.00;;;;;;5067781;28;20453;-80
2021/04/03 07:23:53;;;;;;;3.37;1.70;;;11.90;1.00;;;;;;5050311;28;20950;-80
2021/04/03 07:26:20;;;;;;;3.10;2.30;;;11.90;1.00;;;;;;5053975;28;20461;-79
2021/04/03 07:28:47;;;;;;;2.33;2.13;;;11.90;1.00;;;;;;5053989;28;20455;-79
2021/04/03 07:31:37;;;;;;;5.38;2.20;;;12.10;1.00;;;;;;5056098;28;20503;-80
2021/04/03 07:34:05;;;;;;;3.10;2.03;;;12.10;1.00;;;;;;5048121;28;20201;-80
2021/04/03 07:36:35;;;;;;;7.00;2.30;;;12.20;1.00;;;;;;5052170;28;20534;-80
2021/04/03 07:39:05;;;;;;;5.33;2.40;;;12.30;1.00;;;;;;5055558;28;20970;-79
2021/04/03 07:41:37;;;;;;;1.97;1.80;;;12.40;1.00;;;;;;5058133;28;20463;-78
2021/04/03 07:44:12;;;;;;;3.17;2.87;;;12.50;1.00;;;;;;5061812;28;20531;-78
2021/04/03 07:46:42;;;;;;;3.33;1.90;;;12.50;1.00;;;;;;5050488;28;21000;-78
2021/04/03 07:49:11;;;;;;;2.97;2.40;;;12.50;1.00;;;;;;5059015;28;20447;-76
2021/04/03 07:51:45;;;;;;;3.97;1.67;;;12.50;1.00;;;;;;5049003;28;20461;-76
2021/04/03 07:54:27;;;;;;;2.97;2.20;;;12.70;1.00;;;;;;5061166;28;20525;-80
2021/04/03 07:56:58;;;;;;;6.63;3.27;;;12.90;1.00;;;;;;5054901;28;20509;-77
2021/04/03 07:59:54;;;;;;;3.20;1.77;;;13.10;1.00;;;;;;5065567;28;20442;-78
2021/04/03 08:02:27;;;;;;;3.20;1.80;;;13.40;1.00;;;;;;5049479;28;20986;-78
2021/04/03 08:04:56;;;;;;;5.40;2.43;;;13.50;1.00;;;;;;5055052;28;20444;-80
2021/04/03 08:07:25;;;;;;;4.70;2.20;;;13.60;1.00;;;;;;5053806;28;20446;-75
2021/04/03 08:09:53;;;;;;;2.45;2.00;;;13.70;1.00;;;;;;5054604;28;20846;-76
2021/04/03 08:12:25;;;;;;;4.10;1.80;;;13.70;1.00;;;;;;5061772;28;20252;-77
2021/04/03 08:14:56;;;;;;;2.73;2.23;;;13.70;1.00;;;;;;5049601;28;20496;-75
2021/04/03 08:17:25;;;;;;;4.90;2.10;;;13.80;1.00;;;;;;5056877;28;20451;-77
2021/04/03 08:19:59;;;;;;;2.97;1.80;;;13.80;1.00;;;;;;5051949;28;20459;-77
2021/04/03 08:22:27;;;;;;;4.13;1.93;;;13.70;1.00;;;;;;5053663;28;20894;-77
2021/04/03 08:25:02;;;;;;;3.10;1.80;;;13.60;1.00;;;;;;5061309;28;20456;-77
2021/04/03 08:27:37;;;;;;;4.97;2.03;;;13.50;1.00;;;;;;5047915;28;20471;-77
2021/04/03 08:30:21;;;;;;;4.30;1.83;;;13.60;1.00;;;;;;5054466;28;20466;-77
2021/04/03 08:33:12;;;;;;;5.40;1.93;;;13.70;1.00;;;;;;5059967;28;20447;-77
2021/04/03 08:35:42;;;;;;;2.07;1.97;;;13.80;1.00;;;;;;5056250;28;20461;-77
2021/04/03 08:38:16;;;;;;;4.63;2.03;;;13.90;1.00;;;;;;5046966;28;21136;-76
2021/04/03 08:40:44;;;;;;;2.30;2.03;;;13.90;1.00;;;;;;5042100;28;20954;-76
2021/04/03 08:43:23;;;;;;;3.83;1.53;;;13.90;1.00;;;;;;5046383;28;21191;-77
2021/04/03 08:45:52;;;;;;;1.90;1.80;;;13.80;1.00;;;;;;5054660;28;20976;-80
2021/04/03 08:48:19;;;;;;;1.73;1.50;;;13.60;1.00;;;;;;5050621;28;20454;-78
2021/04/03 08:50:49;;;;;;;3.80;2.03;;;13.30;1.00;;;;;;5060689;28;21076;-78
2021/04/03 08:53:17;;;;;;;3.83;1.97;;;13.30;1.00;;;;;;5045649;28;20576;-79
2021/04/03 08:55:44;;;;;;;4.03;2.60;;;13.40;1.00;;;;;;5057426;28;21009;-80
2021/04/03 08:58:11;;;;;;;3.10;1.70;;;13.50;1.00;;;;;;5049093;28;20475;-77
2021/04/03 09:00:39;;;;;;;3.23;1.87;;;13.60;1.00;;;;;;5049490;28;20463;-78
2021/04/03 09:03:07;;;;;;;3.10;1.80;;;13.50;1.00;;;;;;5060053;28;20512;-79
2021/04/03 09:05:34;;;;;;;3.10;1.50;;;13.60;1.00;;;;;;5053860;28;20458;-78
2021/04/03 09:08:02;;;;;;;1.77;1.60;;;13.60;1.00;;;;;;5044033;28;20487;-80
2021/04/03 09:10:38;;;;;;;2.23;1.70;;;13.50;1.00;;;;;;5055634;28;20449;-79
2021/04/03 09:13:13;;;;;;;3.87;1.63;;;13.60;1.00;;;;;;5060200;28;20458;-80
2021/04/03 09:15:41;;;;;;;5.20;1.70;;;13.60;1.00;;;;;;5050094;28;20492;-79
2021/04/03 09:18:09;;;;;;;2.70;1.50;;;13.60;1.00;;;;;;5049974;28;20463;-78
2021/04/03 09:20:46;;;;;;;3.00;1.60;;;13.50;1.00;;;;;;5047839;28;20972;-78
2021/04/03 09:23:15;;;;;;;1.73;1.50;;;13.30;1.00;;;;;;5048159;28;20456;-80
2021/04/03 09:25:45;;;;;;;4.27;1.60;;;13.40;1.00;;;;;;5045920;28;20456;-80
2021/04/03 09:28:15;;;;;;;3.70;2.23;;;13.30;1.00;;;;;;5059605;28;20463;-79
2021/04/03 09:30:44;;;;;;;4.50;2.20;;;13.20;1.00;;;;;;5059270;28;20478;-78
2021/04/03 09:33:16;;;;;;;3.60;1.73;;;13.10;1.00;;;;;;5049227;28;20638;-77
2021/04/03 09:35:44;;;;;;;4.13;2.10;;;13.20;1.00;;;;;;5050484;28;21031;-76
2021/04/03 09:38:12;;;;;;;2.53;2.03;;;13.20;1.00;;;;;;5048725;28;20462;-77
2021/04/03 09:40:42;;;;;;;3.40;1.80;;;13.20;1.00;;;;;;5051357;28;20442;-75
2021/04/03 09:43:11;;;;;;;2.67;1.70;;;13.20;1.00;;;;;;5046847;28;20464;-76
2021/04/03 09:45:43;;;;;;;1.87;1.40;;;13.20;1.00;;;;;;5049301;28;20496;-78
2021/04/03 09:48:11;;;;;;;3.27;2.00;;;13.30;1.00;;;;;;5056963;28;20491;-79
2021/04/03 09:50:39;;;;;;;2.97;2.10;;;13.10;1.00;;;;;;5055702;28;20900;-77
2021/04/03 09:53:09;;;;;;;1.77;1.50;;;13.10;1.00;;;;;;5056926;28;20660;-78
2021/04/03 09:55:37;;;;;;;3.10;1.80;;;13.20;1.00;;;;;;5061769;28;20443;-77
2021/04/03 09:58:04;;;;;;;2.10;1.37;;;13.30;1.00;;;;;;5055636;28;20450;-77
2021/04/03 10:00:33;;;;;;;2.27;1.60;;;13.60;1.00;;;;;;5050384;28;20559;-77
2021/04/03 10:03:01;;;;;;;1.73;1.53;;;13.80;1.00;;;;;;5053435;28;20480;-77
2021/04/03 10:05:28;;;;;;;1.60;1.50;;;13.80;1.00;;;;;;5051495;28;20450;-79
2021/04/03 10:07:55;;;;;;;1.60;1.40;;;13.90;1.00;;;;;;5052563;28;20477;-79
2021/04/03 10:10:24;;;;;;;3.20;1.50;;;14.00;1.00;;;;;;5064121;28;20453;-77
2021/04/03 10:12:52;;;;;;;2.23;1.57;;;14.10;1.00;;;;;;5066509;28;21139;-78
2021/04/03 10:15:21;;;;;;;1.80;1.70;;;14.00;1.00;;;;;;5055918;28;20449;-77
2021/04/03 10:17:49;;;;;;;1.60;1.13;;;14.10;1.00;;;;;;5048708;28;20485;-78
2021/04/03 10:20:17;;;;;;;1.37;1.20;;;14.10;1.00;;;;;;5062238;28;20816;-77
2021/04/03 10:22:45;;;;;;;1.73;1.20;;;14.00;1.00;;;;;;5057235;28;20480;-77
2021/04/03 10:25:13;;;;;;;2.47;1.60;;;14.10;1.00;;;;;;5047309;28;20549;-79
2021/04/03 10:27:40;;;;;;;1.90;1.60;;;14.20;1.00;;;;;;5046865;28;21074;-77
2021/04/03 10:30:09;;;;;;;3.60;1.60;;;14.20;1.00;;;;;;5054978;28;20460;-77
2021/04/03 10:32:36;;;;;;;3.20;1.70;;;14.10;1.00;;;;;;5063830;28;20479;-77
2021/04/03 10:35:06;;;;;;;3.73;1.87;;;14.20;1.00;;;;;;5057539;28;20478;-78
2021/04/03 10:37:33;;;;;;;3.60;1.57;;;14.40;1.00;;;;;;5059901;28;20461;-78
2021/04/03 10:40:00;;;;;;;4.67;2.00;;;14.40;1.00;;;;;;5051160;28;20543;-77
2021/04/03 10:42:28;;;;;;;2.93;1.40;;;14.40;1.00;;;;;;5052391;28;21003;-78
2021/04/03 10:44:55;;;;;;;5.63;2.30;;;14.50;1.00;;;;;;5056326;28;20917;-78
2021/04/03 10:47:23;;;;;;;4.27;1.80;;;14.50;1.00;;;;;;5061833;28;20314;-76
2021/04/03 10:49:54;;;;;;;1.37;1.27;;;14.60;1.00;;;;;;5061513;28;20457;-79
2021/04/03 10:52:23;;;;;;;3.60;1.90;;;14.60;1.00;;;;;;5062765;28;20547;-79
2021/04/03 10:54:50;;;;;;;2.03;1.43;;;14.60;1.00;;;;;;5058776;28;20449;-78
2021/04/03 10:57:21;;;;;;;2.33;1.70;;;14.50;1.00;;;;;;5069699;28;20463;-79
2021/04/03 10:59:48;;;;;;;1.90;1.50;;;14.60;1.00;;;;;;5059751;28;20441;-79
2021/04/03 11:02:16;;;;;;;2.43;1.80;;;14.60;1.00;;;;;;5064017;28;20549;-80
2021/04/03 11:04:43;;;;;;;3.17;1.50;;;14.50;1.00;;;;;;5068309;28;20513;-79
2021/04/03 11:07:10;;;;;;;5.27;2.50;;;14.50;1.00;;;;;;5051449;28;20988;-79
2021/04/03 11:09:39;;;;;;;5.40;2.20;;;14.60;1.00;;;;;;5070581;28;20487;-79
2021/04/03 11:12:06;;;;;;;4.60;1.57;;;14.60;1.00;;;;;;5070183;28;20544;-79
2021/04/03 11:14:34;;;;;;;2.07;1.93;;;14.60;1.00;;;;;;5053040;28;20936;-78
2021/04/03 11:17:01;;;;;;;3.70;1.57;;;14.50;1.00;;;;;;5060782;28;20607;-78
2021/04/03 11:19:28;;;;;;;1.87;1.47;;;14.70;1.00;;;;;;5061318;28;20533;-80
2021/04/03 11:21:55;;;;;;;4.70;1.70;;;14.80;1.00;;;;;;5050339;28;20915;-79
2021/04/03 11:24:24;;;;;;;2.83;1.50;;;14.90;1.00;;;;;;5047182;28;20442;-78
2021/04/03 11:26:52;;;;;;;2.67;1.80;;;15.00;1.00;;;;;;5069984;28;20465;-80
2021/04/03 11:29:20;;;;;;;2.13;1.50;;;15.20;1.00;;;;;;5063195;28;20450;-79
2021/04/03 11:31:47;;;;;;;3.37;2.03;;;15.20;1.00;;;;;;5050541;28;20478;-80
2021/04/03 11:34:14;;;;;;;3.47;2.00;;;15.00;1.00;;;;;;5056773;28;20465;-79
2021/04/03 11:36:41;;;;;;;3.60;2.40;;;15.10;1.00;;;;;;5065229;28;20461;-79
2021/04/03 11:39:09;;;;;;;1.67;1.50;;;15.00;1.00;;;;;;5060580;28;20446;-79
2021/04/03 11:41:36;;;;;;;1.70;1.60;;;15.00;1.00;;;;;;5050924;28;20462;-79
2021/04/03 11:44:05;;;;;;;2.90;2.27;;;14.90;1.00;;;;;;5057319;28;20445;-79
2021/04/03 11:46:32;;;;;;;4.50;1.67;;;14.80;1.00;;;;;;5059506;28;20453;-79
2021/04/03 11:48:59;;;;;;;2.47;1.73;;;14.80;1.00;;;;;;5055302;28;20506;-79
2021/04/03 11:51:26;;;;;;;3.37;1.60;;;14.80;1.00;;;;;;5052406;28;21190;-79
2021/04/03 11:53:54;;;;;;;4.13;1.87;;;14.80;1.00;;;;;;5068987;28;20451;-77
2021/04/03 11:56:21;;;;;;;3.20;2.00;;;14.90;1.00;;;;;;5061453;28;20732;-78
2021/04/03 11:58:50;;;;;;;2.65;1.80;;;15.00;1.00;;;;;;5052013;28;20435;-78
2021/04/03 12:01:18;;;;;;;2.87;1.50;;;15.10;1.00;;;;;;5060923;28;20227;-78
2021/04/03 12:03:45;;;;;;;1.93;1.30;;;15.20;1.00;;;;;;5049488;28;20811;-78
2021/04/03 12:06:12;;;;;;;3.67;1.90;;;15.10;1.00;;;;;;5049728;28;20473;-78
2021/04/03 12:08:39;;;;;;;2.37;1.60;;;15.00;1.00;;;;;;5056946;28;20481;-80
2021/04/03 12:11:06;;;;;;;1.67;1.57;;;14.90;1.00;;;;;;5049742;28;20477;-79
2021/04/03 12:13:33;;;;;;;1.97;1.07;;;14.90;1.00;;;;;;5061370;28;20443;-78
2021/04/03 12:16:01;;;;;;;1.27;1.10;;;15.00;1.00;;;;;;5049953;28;20476;-79
2021/04/03 12:18:29;;;;;;;2.23;1.30;;;14.90;1.00;;;;;;5062269;28;20446;-79
2021/04/03 12:20:57;;;;;;;2.60;1.20;;;14.90;1.00;;;;;;5060702;28;20484;-79
2021/04/03 12:23:25;;;;;;;1.43;1.30;;;14.90;1.00;;;;;;5046683;28;21155;-78
2021/04/03 12:25:52;;;;;;;2.70;1.30;;;15.10;1.00;;;;;;5048736;28;20549;-78
2021/04/03 12:28:19;;;;;;;1.93;1.23;;;15.10;1.00;;;;;;5061472;28;20837;-79
2021/04/03 12:30:47;;;;;;;4.60;1.50;;;15.20;1.00;;;;;;5058627;28;20484;-79
2021/04/03 12:33:33;;;;;;;2.93;1.67;;;14.90;1.00;;;;;;5052369;28;20461;-78
2021/04/03 12:36:00;;;;;;;2.27;1.40;;;14.80;1.00;;;;;;5049175;28;20465;-79
2021/04/03 12:38:27;;;;;;;2.63;1.50;;;14.70;1.00;;;;;;5058582;28;20450;-78
2021/04/03 12:40:55;;;;;;;7.07;1.97;;;14.70;1.00;;;;;;5054722;28;20472;-79
2021/04/03 12:43:22;;;;;;;2.57;1.50;;;14.50;1.00;;;;;;5059180;28;20815;-79
2021/04/03 12:45:49;;;;;;;2.73;1.70;;;14.50;1.00;;;;;;5061051;28;20450;-77
2021/04/03 12:48:16;;;;;;;2.60;1.70;;;14.50;1.00;;;;;;5058879;28;20473;-79
2021/04/03 12:50:44;;;;;;;2.30;1.80;;;14.50;1.00;;;;;;5062151;28;20461;-79
2021/04/03 12:53:12;;;;;;;2.93;1.30;;;14.50;1.00;;;;;;5051941;28;21174;-80
2021/04/03 12:55:39;;;;;;;2.63;1.43;;;14.40;1.00;;;;;;5053136;28;20803;-79
2021/04/03 12:58:06;;;;;;;2.20;1.30;;;14.40;1.00;;;;;;5058836;28;20477;-81
2021/04/03 13:00:34;;;;;;;3.83;1.43;;;14.50;1.00;;;;;;5056966;28;20851;-82
2021/04/03 13:03:02;;;;;;;1.60;1.30;;;14.40;1.00;;;;;;5067722;28;20531;-82
2021/04/03 13:05:29;;;;;;;3.27;1.40;;;14.60;1.00;;;;;;5062869;28;20446;-82
2021/04/03 13:07:58;;;;;;;2.23;1.30;;;14.80;1.00;;;;;;5060207;28;20470;-80